createdAt,value
2018-09-23T00:01:23.349Z,5.92
2018-09-23T00:03:51.392Z,8.43
2018-09-23T00:06:19.455Z,6.00
2018-09-23T00:08:47.563Z,11.38
2018-09-23T00:11:15.616Z,8.80
2018-09-23T00:13:43.833Z,10.18
2018-09-23T00:16:11.888Z,7.55
2018-09-23T00:18:39.984Z,5.40
2018-09-23T00:21:08.048Z,10.00
2018-09-23T00:23:36.111Z,7.03
2018-09-23T00:26:04.168Z,7.05
2018-09-23T00:28:32.235Z,5.70
2018-09-23T00:31:00.274Z,9.13
2018-09-23T00:33:28.333Z,8.08
2018-09-23T00:35:56.392Z,7.12
2018-09-23T00:38:24.436Z,8.40
2018-09-23T00:40:52.493Z,7.45
2018-09-23T00:43:20.571Z,6.85
2018-09-23T00:45:48.611Z,7.05
2018-09-23T00:48:16.705Z,8.00
2018-09-23T00:50:44.784Z,5.67
2018-09-23T00:53:12.848Z,8.10
2018-09-23T00:55:40.892Z,11.75
2018-09-23T00:58:08.959Z,7.03
2018-09-23T01:00:37.008Z,7.62
2018-09-23T01:03:05.145Z,13.70
2018-09-23T01:05:33.193Z,10.03
2018-09-23T01:08:01.263Z,8.88
2018-09-23T01:10:29.340Z,10.98
2018-09-23T01:12:57.379Z,17.75
2018-09-23T01:15:25.448Z,10.28
2018-09-23T01:17:53.565Z,9.65
2018-09-23T01:20:21.604Z,9.80
2018-09-23T01:22:49.894Z,8.50
2018-09-23T01:25:17.980Z,14.00
2018-09-23T01:27:46.033Z,7.72
2018-09-23T01:30:14.092Z,12.60
2018-09-23T01:32:42.157Z,13.03
2018-09-23T01:35:10.219Z,9.73
2018-09-23T01:37:38.360Z,13.62
2018-09-23T01:40:06.716Z,13.05
2018-09-23T01:42:34.759Z,12.00
2018-09-23T01:45:02.820Z,13.58
2018-09-23T01:47:30.872Z,13.03
2018-09-23T01:49:58.956Z,12.53
2018-09-23T01:52:27.024Z,12.85
2018-09-23T01:54:55.080Z,10.05
2018-09-23T01:57:23.133Z,11.65
2018-09-23T01:59:51.191Z,13.85
2018-09-23T02:02:19.239Z,11.88
2018-09-23T02:04:47.303Z,11.12
2018-09-23T02:07:15.374Z,11.40
2018-09-23T02:09:43.422Z,16.50
2018-09-23T02:12:11.478Z,13.60
2018-09-23T02:14:39.536Z,11.08
2018-09-23T02:17:07.594Z,17.62
2018-09-23T02:19:35.644Z,20.88
2018-09-23T02:22:03.720Z,14.98
2018-09-23T02:24:31.781Z,15.85
2018-09-23T02:26:59.844Z,15.08
2018-09-23T02:29:27.904Z,19.92
2018-09-23T02:31:55.965Z,13.72
2018-09-23T02:34:24.064Z,12.55
2018-09-23T02:36:52.120Z,14.07
2018-09-23T02:39:20.175Z,20.30
2018-09-23T02:41:48.236Z,17.12
2018-09-23T02:44:16.292Z,10.10
2018-09-23T02:46:44.351Z,23.42
2018-09-23T02:49:12.417Z,11.35
2018-09-23T02:51:40.510Z,12.80
2018-09-23T02:54:08.567Z,13.95
2018-09-23T02:56:36.628Z,11.43
2018-09-23T02:59:04.695Z,13.75
2018-09-23T03:01:32.768Z,18.80
2018-09-23T03:04:00.840Z,14.43
2018-09-23T03:06:28.928Z,14.20
2018-09-23T03:08:56.979Z,20.95
2018-09-23T03:11:25.049Z,15.25
2018-09-23T03:13:53.098Z,12.63
2018-09-23T03:16:21.151Z,14.35
2018-09-23T03:18:49.191Z,15.53
2018-09-23T03:21:17.297Z,17.67
2018-09-23T03:23:45.336Z,10.05
2018-09-23T03:26:13.393Z,13.95
2018-09-23T03:28:41.448Z,13.98
2018-09-23T03:31:09.532Z,15.20
2018-09-23T03:33:37.564Z,10.50
2018-09-23T03:36:05.628Z,11.80
2018-09-23T03:38:33.700Z,13.58
2018-09-23T03:41:01.756Z,17.37
2018-09-23T03:43:29.810Z,18.40
2018-09-23T03:45:57.874Z,14.13
2018-09-23T03:48:25.926Z,14.90
2018-09-23T03:50:53.985Z,17.10
2018-09-23T03:53:22.037Z,12.47
2018-09-23T03:55:50.121Z,18.37
2018-09-23T03:58:18.194Z,15.78
2018-09-23T04:00:46.275Z,21.62
2018-09-23T04:03:14.324Z,18.90
2018-09-23T04:05:42.392Z,13.35
2018-09-23T04:08:10.473Z,19.25
2018-09-23T04:10:38.534Z,14.05
2018-09-23T04:13:06.579Z,19.32
2018-09-23T04:15:34.639Z,14.23
2018-09-23T04:18:02.692Z,12.55
2018-09-23T04:20:30.769Z,18.23
2018-09-23T04:22:58.825Z,12.55
2018-09-23T04:25:26.889Z,15.48
2018-09-23T04:27:54.956Z,19.50
2018-09-23T04:30:23.029Z,21.60
2018-09-23T04:32:51.384Z,19.00
2018-09-23T04:35:19.661Z,13.38
2018-09-23T04:37:48.248Z,18.75
2018-09-23T04:40:16.295Z,22.20
2018-09-23T04:42:44.357Z,19.52
2018-09-23T04:45:12.420Z,22.60
2018-09-23T04:47:40.496Z,15.08
2018-09-23T04:50:08.549Z,19.27
2018-09-23T04:52:36.617Z,16.02
2018-09-23T04:55:04.732Z,28.00
2018-09-23T04:57:32.797Z,14.25
2018-09-23T05:00:00.880Z,20.10
2018-09-23T05:02:28.953Z,18.12
2018-09-23T05:04:56.987Z,16.25
2018-09-23T05:07:25.059Z,18.15
2018-09-23T05:09:53.128Z,18.82
2018-09-23T05:12:21.196Z,13.28
2018-09-23T05:14:49.241Z,9.88
2018-09-23T05:17:17.299Z,20.77
2018-09-23T05:19:45.343Z,14.95
2018-09-23T05:22:13.420Z,28.12
2018-09-23T05:24:41.480Z,14.63
2018-09-23T05:27:09.556Z,17.00
2018-09-23T05:29:37.622Z,15.83
2018-09-23T05:32:05.688Z,12.58
2018-09-23T05:34:33.736Z,23.18
2018-09-23T05:37:01.796Z,14.30
2018-09-23T05:39:29.864Z,19.40
2018-09-23T05:41:57.932Z,15.32
2018-09-23T05:44:25.988Z,11.28
2018-09-23T05:46:54.064Z,16.15
2018-09-23T05:49:22.112Z,11.80
2018-09-23T05:51:50.196Z,31.70
2018-09-23T05:54:18.257Z,16.48
2018-09-23T05:56:46.377Z,12.85
2018-09-23T05:59:14.465Z,20.25
2018-09-23T06:01:42.529Z,24.70
2018-09-23T06:04:10.591Z,19.12
2018-09-23T06:06:38.648Z,17.02
2018-09-23T06:09:07.060Z,17.57
2018-09-23T06:11:35.309Z,22.62
2018-09-23T06:14:03.380Z,14.98
2018-09-23T06:16:31.430Z,19.25
2018-09-23T06:18:59.491Z,13.72
2018-09-23T06:21:27.565Z,13.68
2018-09-23T06:23:55.629Z,22.75
2018-09-23T06:26:23.701Z,27.58
2018-09-23T06:28:51.771Z,30.00
2018-09-23T06:31:19.840Z,15.80
2018-09-23T06:33:47.893Z,20.15
2018-09-23T06:36:15.943Z,18.27
2018-09-23T06:38:44.033Z,22.90
2018-09-23T06:41:12.084Z,17.67
2018-09-23T06:43:40.140Z,22.00
2018-09-23T06:46:08.203Z,20.97
2018-09-23T06:48:36.300Z,25.62
2018-09-23T06:51:04.411Z,26.87
2018-09-23T06:53:32.440Z,30.30
2018-09-23T06:56:00.515Z,16.95
2018-09-23T06:58:28.585Z,15.72
2018-09-23T07:00:56.640Z,17.90
2018-09-23T07:03:24.692Z,21.85
2018-09-23T07:05:52.764Z,19.17
2018-09-23T07:08:20.827Z,18.07
2018-09-23T07:10:48.887Z,32.93
2018-09-23T07:13:16.952Z,23.57
2018-09-23T07:15:45.005Z,21.02
2018-09-23T07:18:13.156Z,20.85
2018-09-23T07:20:41.143Z,21.02
2018-09-23T07:23:09.213Z,22.62
2018-09-23T07:25:37.283Z,24.50
2018-09-23T07:28:05.376Z,17.02
2018-09-23T07:30:33.442Z,17.87
2018-09-23T07:33:01.517Z,28.45
2018-09-23T07:35:29.572Z,21.87
2018-09-23T07:37:57.628Z,18.10
2018-09-23T07:40:25.676Z,21.93
2018-09-23T07:42:53.741Z,22.07
2018-09-23T07:45:21.900Z,16.57
2018-09-23T07:47:49.960Z,16.95
2018-09-23T07:50:18.024Z,20.27
2018-09-23T07:52:46.099Z,17.30
2018-09-23T07:55:14.148Z,13.25
2018-09-23T07:57:42.229Z,24.35
2018-09-23T08:00:10.272Z,36.73
2018-09-23T08:02:38.353Z,20.72
2018-09-23T08:05:06.440Z,15.98
2018-09-23T08:07:34.512Z,18.98
2018-09-23T08:10:02.665Z,22.00
2018-09-23T08:12:30.751Z,20.35
2018-09-23T08:14:59.004Z,16.45
2018-09-23T08:17:26.865Z,23.05
2018-09-23T08:19:55.212Z,24.98
2018-09-23T08:22:23.015Z,28.95
2018-09-23T08:24:51.141Z,21.97
2018-09-23T08:27:19.201Z,19.45
2018-09-23T08:29:47.276Z,15.85
2018-09-23T08:32:15.340Z,17.57
2018-09-23T08:34:43.402Z,21.25
2018-09-23T08:37:11.515Z,23.05
2018-09-23T08:39:39.540Z,16.37
2018-09-23T08:42:07.605Z,26.68
2018-09-23T08:44:35.661Z,17.12
2018-09-23T08:47:03.708Z,13.75
2018-09-23T08:49:31.764Z,20.30
2018-09-23T08:51:59.886Z,12.30
2018-09-23T08:54:27.925Z,15.03
2018-09-23T08:56:55.988Z,22.40
2018-09-23T08:59:24.090Z,15.72
2018-09-23T09:01:52.145Z,16.60
2018-09-23T09:04:20.222Z,21.82
2018-09-23T09:06:48.340Z,14.00
2018-09-23T09:09:16.400Z,22.15
2018-09-23T09:11:44.495Z,17.27
2018-09-23T09:14:12.528Z,19.00
2018-09-23T09:16:40.592Z,17.82
2018-09-23T09:19:08.665Z,23.92
2018-09-23T09:21:36.724Z,21.40
2018-09-23T09:24:04.855Z,21.95
2018-09-23T09:26:32.918Z,16.02
2018-09-23T09:29:00.986Z,16.25
2018-09-23T09:31:29.051Z,17.60
2018-09-23T09:33:57.133Z,23.75
2018-09-23T09:36:25.184Z,16.20
2018-09-23T09:38:53.227Z,17.70
2018-09-23T09:41:21.302Z,21.15
2018-09-23T09:43:49.352Z,16.95
2018-09-23T09:46:17.399Z,19.65
2018-09-23T09:48:45.441Z,19.50
2018-09-23T09:51:13.500Z,18.15
2018-09-23T09:53:41.606Z,18.25
2018-09-23T09:56:09.661Z,11.75
2018-09-23T09:58:37.712Z,11.88
2018-09-23T10:01:05.757Z,11.00
2018-09-23T10:03:33.804Z,15.78
2018-09-23T10:06:01.876Z,15.25
2018-09-23T10:08:29.927Z,16.02
2018-09-23T10:10:57.971Z,13.75
2018-09-23T10:13:26.069Z,12.10
2018-09-23T10:15:54.125Z,19.32
2018-09-23T10:18:22.168Z,21.75
2018-09-23T10:20:51.128Z,13.03
2018-09-23T10:23:19.390Z,12.25
2018-09-23T10:25:47.340Z,23.73
2018-09-23T10:28:15.408Z,12.18
2018-09-23T10:30:43.493Z,22.35
2018-09-23T10:33:11.545Z,12.25
2018-09-23T10:35:39.593Z,13.15
2018-09-23T10:38:07.655Z,8.35
2018-09-23T10:40:35.772Z,15.35
2018-09-23T10:43:03.829Z,12.25
2018-09-23T10:45:31.884Z,11.20
2018-09-23T10:47:59.964Z,7.85
2018-09-23T10:50:28.045Z,11.97
2018-09-23T10:52:56.103Z,11.30
2018-09-23T10:55:24.232Z,11.45
2018-09-23T10:57:52.204Z,9.75
2018-09-23T11:00:20.329Z,10.05
2018-09-23T11:02:48.359Z,7.20
2018-09-23T11:05:16.416Z,8.13
2018-09-23T11:07:44.536Z,7.00
2018-09-23T11:10:12.577Z,10.25
2018-09-23T11:12:40.625Z,12.82
2018-09-23T11:15:08.794Z,17.10
2018-09-23T11:17:36.793Z,7.95
2018-09-23T11:20:04.874Z,11.38
2018-09-23T11:22:32.956Z,11.38
2018-09-23T11:25:01.001Z,10.93
2018-09-23T11:27:29.064Z,19.05
2018-09-23T11:29:57.100Z,13.15
2018-09-23T11:32:25.233Z,11.40
2018-09-23T11:34:53.263Z,14.73
2018-09-23T11:37:21.311Z,10.53
2018-09-23T11:39:50.384Z,10.70
2018-09-23T11:42:18.417Z,9.75
2018-09-23T11:44:46.461Z,11.28
2018-09-23T11:47:14.496Z,11.55
2018-09-23T11:49:42.537Z,10.55
2018-09-23T11:52:10.584Z,15.18
2018-09-23T11:54:38.649Z,11.03
2018-09-23T11:57:06.700Z,19.05
2018-09-23T11:59:34.733Z,9.80
2018-09-23T12:02:04.382Z,14.87
2018-09-23T12:04:32.420Z,11.38
2018-09-23T12:07:00.419Z,14.35
2018-09-23T12:09:28.542Z,11.85
2018-09-23T12:11:56.595Z,10.78
2018-09-23T12:14:24.670Z,16.93
2018-09-23T12:16:52.709Z,10.15
2018-09-23T12:19:20.764Z,8.53
2018-09-23T12:21:48.805Z,11.88
2018-09-23T12:24:16.848Z,12.35
2018-09-23T12:26:44.919Z,11.15
2018-09-23T12:29:13.001Z,12.82
2018-09-23T12:31:41.084Z,13.50
2018-09-23T12:34:09.128Z,9.33
2018-09-23T12:36:37.158Z,8.40
2018-09-23T12:39:08.731Z,12.98
2018-09-23T12:41:36.917Z,10.65
2018-09-23T12:44:04.995Z,9.80
2018-09-23T12:46:33.026Z,7.97
2018-09-23T12:49:01.165Z,8.65
2018-09-23T12:51:29.210Z,9.23
2018-09-23T12:53:57.276Z,5.53
2018-09-23T12:56:25.337Z,6.70
2018-09-23T12:58:53.380Z,6.80
2018-09-23T13:01:21.488Z,5.30
2018-09-23T13:03:49.524Z,5.78
2018-09-23T13:06:17.623Z,6.62
2018-09-23T13:08:45.662Z,6.90
2018-09-23T13:11:13.728Z,4.15
2018-09-23T13:13:41.788Z,7.67
2018-09-23T13:16:09.940Z,4.95
2018-09-23T13:18:37.977Z,5.75
2018-09-23T13:21:06.018Z,5.65
2018-09-23T13:23:34.112Z,5.90
2018-09-23T13:26:02.241Z,3.52
2018-09-23T13:28:30.285Z,5.03
2018-09-23T13:30:58.349Z,5.33
2018-09-23T13:33:26.405Z,5.55
2018-09-23T13:35:54.476Z,5.58
2018-09-23T13:38:22.592Z,6.47
2018-09-23T13:40:50.664Z,3.55
2018-09-23T13:43:18.708Z,5.78
2018-09-23T13:45:46.844Z,4.80
2018-09-23T13:48:14.993Z,5.17
2018-09-23T13:50:43.102Z,2.80
2018-09-23T13:53:11.157Z,7.20
2018-09-23T13:55:39.221Z,3.05
2018-09-23T13:58:07.294Z,3.05
2018-09-23T14:00:35.485Z,14.38
2018-09-23T14:03:03.605Z,5.72
2018-09-23T14:05:31.756Z,4.58
2018-09-23T14:07:59.818Z,4.25
2018-09-23T14:10:27.879Z,5.75
2018-09-23T14:12:55.940Z,2.75
2018-09-23T14:15:24.001Z,3.15
2018-09-23T14:17:52.054Z,3.37
2018-09-23T14:20:20.125Z,2.55
2018-09-23T14:22:48.301Z,3.70
2018-09-23T14:25:16.531Z,5.53
2018-09-23T14:27:44.637Z,1.90
2018-09-23T14:30:12.761Z,2.50
2018-09-23T14:32:40.832Z,2.27
2018-09-23T14:35:08.896Z,7.50
2018-09-23T14:37:36.983Z,8.40
2018-09-23T14:40:05.028Z,2.70
2018-09-23T14:42:33.176Z,2.75
2018-09-23T14:45:01.164Z,2.80
2018-09-23T14:47:29.269Z,4.28
2018-09-23T14:49:57.332Z,3.00
2018-09-23T14:52:25.376Z,5.03
2018-09-23T14:54:53.520Z,5.40
2018-09-23T14:57:21.517Z,3.77
2018-09-23T14:59:54.191Z,4.60
2018-09-23T15:02:17.647Z,2.35
2018-09-23T15:04:45.778Z,2.87
2018-09-23T15:07:13.828Z,3.87
2018-09-23T15:09:41.912Z,6.20
2018-09-23T15:12:09.977Z,6.42
2018-09-23T15:14:38.049Z,3.35
2018-09-23T15:17:06.093Z,3.20
2018-09-23T15:19:34.155Z,3.33
2018-09-23T15:22:02.197Z,4.08
2018-09-23T15:24:30.251Z,2.52
2018-09-23T15:26:58.293Z,2.83
2018-09-23T15:29:26.367Z,4.28
2018-09-23T15:31:54.420Z,4.62
2018-09-23T15:34:22.556Z,4.92
2018-09-23T15:36:50.647Z,5.70
2018-09-23T15:39:18.685Z,4.90
2018-09-23T15:41:46.756Z,6.47
2018-09-23T15:44:14.843Z,5.12
2018-09-23T15:46:42.896Z,4.65
2018-09-23T15:49:10.950Z,5.00
2018-09-23T15:51:39.021Z,6.95
2018-09-23T15:54:07.481Z,6.55
2018-09-23T15:56:35.548Z,11.43
2018-09-23T15:59:03.590Z,6.30
2018-09-23T16:01:31.652Z,4.62
2018-09-23T16:03:59.708Z,6.03
2018-09-23T16:06:27.760Z,4.65
2018-09-23T16:08:55.817Z,4.62
2018-09-23T16:11:23.873Z,5.03
2018-09-23T16:13:51.934Z,5.17
2018-09-23T16:16:20.032Z,4.50
2018-09-23T16:18:48.194Z,7.83
2018-09-23T16:21:16.149Z,4.72
2018-09-23T16:23:44.231Z,3.65
2018-09-23T16:26:12.307Z,7.65
2018-09-23T16:28:40.367Z,5.72
2018-09-23T16:31:08.465Z,6.12
2018-09-23T16:33:36.541Z,6.97
2018-09-23T16:36:04.616Z,2.47
2018-09-23T16:38:32.688Z,4.10
2018-09-23T16:41:00.764Z,8.38
2018-09-23T16:43:28.826Z,16.17
2018-09-23T16:45:56.872Z,4.62
2018-09-23T16:48:24.913Z,6.50
2018-09-23T16:50:52.984Z,4.75
2018-09-23T16:53:21.060Z,181.80
2018-09-23T16:55:49.152Z,461.10
2018-09-23T16:58:17.225Z,275.82
2018-09-23T17:00:45.376Z,205.70
2018-09-23T17:03:13.380Z,174.53
2018-09-23T17:05:41.447Z,245.88
2018-09-23T17:08:09.517Z,250.00
2018-09-23T17:10:37.584Z,183.78
2018-09-23T17:13:05.671Z,110.42
2018-09-23T17:15:33.765Z,94.07
2018-09-23T17:18:01.852Z,104.38
2018-09-23T17:20:29.888Z,106.58
2018-09-23T17:22:57.961Z,85.90
2018-09-23T17:25:26.024Z,53.87
2018-09-23T17:27:55.088Z,78.90
2018-09-23T17:30:23.463Z,31.50
2018-09-23T17:32:51.553Z,33.58
2018-09-23T17:35:19.605Z,37.03
2018-09-23T17:37:47.684Z,24.80
2018-09-23T17:40:15.763Z,15.68
2018-09-23T17:42:43.812Z,10.25
2018-09-23T17:45:11.879Z,6.80
2018-09-23T17:47:39.929Z,8.83
2018-09-23T17:50:08.464Z,9.45
2018-09-23T17:52:36.488Z,6.87
2018-09-23T17:55:04.557Z,10.90
2018-09-23T17:57:32.620Z,12.23
2018-09-23T18:00:00.672Z,6.67
2018-09-23T18:02:29.508Z,5.03
2018-09-23T18:04:57.544Z,6.53
2018-09-23T18:07:25.615Z,7.12
2018-09-23T18:09:53.680Z,6.35
2018-09-23T18:12:21.751Z,5.67
2018-09-23T18:14:49.808Z,9.43
2018-09-23T18:17:17.870Z,8.63
2018-09-23T18:19:46.016Z,4.10
2018-09-23T18:22:14.121Z,5.20
2018-09-23T18:24:42.187Z,6.97
2018-09-23T18:27:10.241Z,15.90
2018-09-23T18:29:38.292Z,5.65
2018-09-23T18:32:06.437Z,9.50
2018-09-23T18:34:34.505Z,8.98
2018-09-23T18:37:02.587Z,4.80
2018-09-23T18:39:30.621Z,4.03
2018-09-23T18:41:58.675Z,14.60
2018-09-23T18:44:26.784Z,4.92
2018-09-23T18:46:54.831Z,4.37
2018-09-23T18:49:22.889Z,4.62
2018-09-23T18:51:50.955Z,3.35
2018-09-23T18:54:24.494Z,9.90
2018-09-23T18:56:52.548Z,3.70
2018-09-23T18:59:20.608Z,3.27
2018-09-23T19:01:48.717Z,3.98
2018-09-23T19:04:16.764Z,7.45
2018-09-23T19:06:44.816Z,5.87
2018-09-23T19:09:12.892Z,13.83
2018-09-23T19:11:40.996Z,4.80
2018-09-23T19:14:09.053Z,15.20
2018-09-23T19:16:37.085Z,7.55
2018-09-23T19:19:05.149Z,3.98
2018-09-23T19:21:33.225Z,6.00
2018-09-23T19:24:01.276Z,3.22
2018-09-23T19:26:29.505Z,3.08
2018-09-23T19:28:57.632Z,3.30
2018-09-23T19:31:25.704Z,2.55
2018-09-23T19:33:53.776Z,3.62
2018-09-23T19:36:21.846Z,4.28
2018-09-23T19:38:50.004Z,5.40
2018-09-23T19:41:18.082Z,5.20
2018-09-23T19:43:46.180Z,3.08
2018-09-23T19:46:14.260Z,3.45
2018-09-23T19:48:42.319Z,2.37
2018-09-23T19:51:10.384Z,1.80
2018-09-23T19:53:38.568Z,7.30
2018-09-23T19:56:06.715Z,7.08
2018-09-23T19:58:34.799Z,3.60
2018-09-23T20:01:02.845Z,1.70
2018-09-23T20:03:30.925Z,3.67
2018-09-23T20:05:58.985Z,2.22
2018-09-23T20:08:27.071Z,8.83
2018-09-23T20:10:55.121Z,3.42
2018-09-23T20:13:23.470Z,10.80
2018-09-23T20:15:51.719Z,3.25
2018-09-23T20:18:19.637Z,4.05
2018-09-23T20:20:47.701Z,5.53
2018-09-23T20:23:15.768Z,3.17
2018-09-23T20:25:43.827Z,5.72
2018-09-23T20:28:11.955Z,3.15
2018-09-23T20:30:39.999Z,6.58
2018-09-23T20:33:08.080Z,1.50
2018-09-23T20:35:36.143Z,1.70
2018-09-23T20:38:04.193Z,5.00
2018-09-23T20:40:32.258Z,1.75
2018-09-23T20:43:00.303Z,5.62
2018-09-23T20:45:28.382Z,4.37
2018-09-23T20:47:56.449Z,2.62
2018-09-23T20:50:24.520Z,2.83
2018-09-23T20:52:52.552Z,8.08
2018-09-23T20:55:20.617Z,1.72
2018-09-23T20:57:48.665Z,2.08
2018-09-23T21:00:16.785Z,7.87
2018-09-23T21:02:44.864Z,1.77
2018-09-23T21:05:12.936Z,1.60
2018-09-23T21:07:40.980Z,2.00
2018-09-23T21:10:09.064Z,2.85
2018-09-23T21:12:37.189Z,3.10
2018-09-23T21:15:06.439Z,1.40
2018-09-23T21:17:34.493Z,1.70
2018-09-23T21:20:02.544Z,2.25
2018-09-23T21:22:30.612Z,1.50
2018-09-23T21:24:58.732Z,1.92
2018-09-23T21:27:26.799Z,2.22
2018-09-23T21:29:54.872Z,1.70
2018-09-23T21:32:22.944Z,2.12
2018-09-23T21:34:51.013Z,1.92
2018-09-23T21:37:19.073Z,1.82
2018-09-23T21:39:47.153Z,1.50
2018-09-23T21:42:15.212Z,1.80
2018-09-23T21:44:43.268Z,1.52
2018-09-23T21:47:11.377Z,1.50
2018-09-23T21:49:39.456Z,2.35
2018-09-23T21:52:07.549Z,8.45
2018-09-23T21:54:35.729Z,3.45
2018-09-23T21:57:03.802Z,1.70
2018-09-23T21:59:31.900Z,2.20
2018-09-23T22:01:59.964Z,9.23
2018-09-23T22:04:28.068Z,1.98
2018-09-23T22:06:56.150Z,2.25
2018-09-23T22:09:24.229Z,1.65
2018-09-23T22:11:52.284Z,7.30
2018-09-23T22:14:20.338Z,6.45
2018-09-23T22:16:48.398Z,1.30
2018-09-23T22:19:16.472Z,5.28
2018-09-23T22:21:44.568Z,8.80
2018-09-23T22:24:12.596Z,2.87
2018-09-23T22:26:40.629Z,3.85
2018-09-23T22:29:08.706Z,2.22
2018-09-23T22:31:36.796Z,1.40
2018-09-23T22:34:04.849Z,3.75
2018-09-23T22:36:32.929Z,4.00
2018-09-23T22:39:00.988Z,1.40
2018-09-23T22:41:29.292Z,3.55
2018-09-23T22:43:57.348Z,1.67
2018-09-23T22:46:25.404Z,1.50
2018-09-23T22:48:53.452Z,1.75
2018-09-23T22:51:21.524Z,2.35
2018-09-23T22:53:49.575Z,1.70
2018-09-23T22:56:17.629Z,2.60
2018-09-23T22:58:45.692Z,1.50
2018-09-23T23:01:13.797Z,2.22
2018-09-23T23:03:41.882Z,1.40
2018-09-23T23:06:09.968Z,1.52
2018-09-23T23:08:38.016Z,3.08
2018-09-23T23:11:06.077Z,2.70
2018-09-23T23:13:34.128Z,4.58
2018-09-23T23:16:02.196Z,1.80
2018-09-23T23:18:30.249Z,1.92
2018-09-23T23:20:58.320Z,2.22
2018-09-23T23:23:26.375Z,1.60
2018-09-23T23:25:54.440Z,1.57
2018-09-23T23:28:22.491Z,1.60
2018-09-23T23:30:50.580Z,6.45
2018-09-23T23:33:18.638Z,13.88
2018-09-23T23:35:46.703Z,3.85
2018-09-23T23:38:14.784Z,5.95
2018-09-23T23:40:42.862Z,1.80
2018-09-23T23:43:10.912Z,1.60
2018-09-23T23:45:38.995Z,1.60
2018-09-23T23:48:07.093Z,6.80
2018-09-23T23:50:35.180Z,1.50
2018-09-23T23:53:03.228Z,2.05
2018-09-23T23:55:31.285Z,1.90
2018-09-23T23:57:59.344Z,2.47
